Time;durP1;ratioP1;P1;durP2;ratioP2;P2;SDS_P1;SDS_P2;PMS_P1;PMS_P2;Temp;Humidity;BMP_temperature;BMP_pressure;BME280_temperature;BME280_humidity;BME280_pressure;Samples;Min_cycle;Max_cycle;Signal;HPM_P1;HPM_P2
2021/01/07 00:00:03;;;;;;;1.60;1.50;;;17.90;55.00;;;;;;5106671;28;20243;-60
2021/01/07 00:02:29;;;;;;;1.40;1.30;;;17.90;55.00;;;;;;5088560;28;20200;-58
2021/01/07 00:04:54;;;;;;;1.30;1.20;;;17.80;55.10;;;;;;5106537;28;20685;-60
2021/01/07 00:07:20;;;;;;;1.70;1.30;;;17.80;55.00;;;;;;5106367;28;20528;-60
2021/01/07 00:09:45;;;;;;;1.45;1.15;;;17.80;55.00;;;;;;5106504;28;20169;-61
2021/01/07 00:12:11;;;;;;;1.90;1.38;;;17.80;55.10;;;;;;5106849;28;20256;-60
2021/01/07 00:14:37;;;;;;;1.73;1.38;;;17.80;55.00;;;;;;5106290;28;20248;-61
2021/01/07 00:17:02;;;;;;;1.70;1.17;;;17.80;55.10;;;;;;5106567;28;20598;-58
2021/01/07 00:19:28;;;;;;;2.47;1.30;;;17.80;55.10;;;;;;5106527;28;20238;-60
2021/01/07 00:21:53;;;;;;;1.45;1.20;;;17.80;55.10;;;;;;5106163;28;20181;-61
2021/01/07 00:24:19;;;;;;;2.00;1.50;;;17.70;55.00;;;;;;5088654;28;20631;-61
2021/01/07 00:26:44;;;;;;;2.03;1.20;;;17.70;55.10;;;;;;5085890;28;20544;-62
2021/01/07 00:29:10;;;;;;;1.10;1.00;;;17.70;55.00;;;;;;5086030;28;20626;-60
2021/01/07 00:31:35;;;;;;;1.65;1.30;;;17.70;55.10;;;;;;5085565;28;20178;-61
2021/01/07 00:34:01;;;;;;;1.40;1.30;;;17.70;55.70;;;;;;5085084;28;20216;-61
2021/01/07 00:36:26;;;;;;;1.55;1.45;;;17.70;55.10;;;;;;5085794;28;20922;-61
2021/01/07 00:38:52;;;;;;;2.65;1.42;;;17.70;55.00;;;;;;5085753;28;20180;-63
2021/01/07 00:41:18;;;;;;;1.95;1.60;;;17.70;54.90;;;;;;5085505;28;20178;-62
2021/01/07 00:43:47;;;;;;;3.22;1.55;;;17.70;54.50;;;;;;5085353;28;20202;-62
2021/01/07 00:46:13;;;;;;;1.70;1.38;;;17.60;54.70;;;;;;5085307;28;20182;-61
2021/01/07 00:48:38;;;;;;;1.67;1.20;;;17.60;55.40;;;;;;5085525;28;20230;-61
2021/01/07 00:51:06;;;;;;;1.60;1.42;;;17.60;54.70;;;;;;5085689;28;20177;-61
2021/01/07 00:53:31;;;;;;;1.40;1.30;;;17.60;54.80;;;;;;5085070;28;20261;-59
2021/01/07 00:55:57;;;;;;;1.80;1.38;;;17.60;54.80;;;;;;5085397;28;20286;-60
2021/01/07 00:58:22;;;;;;;1.20;1.20;;;17.60;54.80;;;;;;5085136;28;20181;-61
2021/01/07 01:00:48;;;;;;;1.48;1.20;;;17.60;54.80;;;;;;5085153;28;20277;-60
2021/01/07 01:03:13;;;;;;;1.60;1.50;;;17.60;54.80;;;;;;5085016;28;20209;-61
2021/01/07 01:05:39;;;;;;;1.65;1.30;;;17.60;54.90;;;;;;5084479;28;20174;-60
2021/01/07 01:08:05;;;;;;;2.05;1.38;;;17.50;54.80;;;;;;5084766;28;20169;-58
2021/01/07 01:10:31;;;;;;;1.20;1.13;;;17.50;54.80;;;;;;5084846;28;20172;-60
2021/01/07 01:12:56;;;;;;;1.95;1.40;;;17.50;54.80;;;;;;5084739;28;20363;-60
2021/01/07 01:15:22;;;;;;;1.48;1.38;;;17.50;54.90;;;;;;5084527;28;20271;-60
2021/01/07 01:17:48;;;;;;;1.42;1.33;;;17.60;54.90;;;;;;5084516;28;20189;-60
2021/01/07 01:20:13;;;;;;;1.15;1.08;;;17.50;54.90;;;;;;5084967;28;20277;-61
2021/01/07 01:22:40;;;;;;;2.33;1.45;;;17.50;54.90;;;;;;5087347;28;20176;-60
2021/01/07 01:25:09;;;;;;;1.40;1.30;;;17.50;54.90;;;;;;5104966;28;20174;-60
2021/01/07 01:27:36;;;;;;;1.27;1.17;;;17.50;54.90;;;;;;5104677;28;20180;-59
2021/01/07 01:30:06;;;;;;;1.25;1.23;;;17.50;54.90;;;;;;5104934;28;20176;-60
2021/01/07 01:32:33;;;;;;;1.27;1.17;;;17.50;54.90;;;;;;5104895;28;20179;-60
2021/01/07 01:34:58;;;;;;;1.60;1.45;;;17.40;54.90;;;;;;5104679;28;20205;-58
2021/01/07 01:37:24;;;;;;;1.40;1.23;;;17.40;54.80;;;;;;5104746;28;20344;-61
2021/01/07 01:39:50;;;;;;;1.90;1.45;;;17.50;54.90;;;;;;5104783;28;20184;-61
2021/01/07 01:42:15;;;;;;;1.67;1.58;;;17.40;54.90;;;;;;5104876;28;20615;-60
2021/01/07 01:44:41;;;;;;;1.27;1.17;;;17.40;54.90;;;;;;5085898;28;20258;-60
2021/01/07 01:47:06;;;;;;;1.30;1.15;;;17.40;54.90;;;;;;5104345;28;20203;-60
2021/01/07 01:49:32;;;;;;;1.70;1.60;;;17.50;55.00;;;;;;5104651;28;20173;-60
2021/01/07 01:51:57;;;;;;;1.45;1.20;;;17.40;55.00;;;;;;5104548;28;20242;-60
2021/01/07 01:54:23;;;;;;;1.33;1.23;;;17.40;55.00;;;;;;5104288;28;21097;-62
2021/01/07 01:56:48;;;;;;;1.30;1.20;;;17.40;55.00;;;;;;5086505;28;21044;-61
2021/01/07 01:59:14;;;;;;;1.27;1.17;;;17.40;55.00;;;;;;5085997;28;20173;-60
2021/01/07 02:01:40;;;;;;;1.33;1.23;;;17.40;55.00;;;;;;5069727;28;20173;-61
2021/01/07 02:04:06;;;;;;;1.40;1.30;;;17.40;55.00;;;;;;5104341;28;20203;-61
2021/01/07 02:06:31;;;;;;;1.42;1.30;;;17.30;55.00;;;;;;5104292;28;20184;-62
2021/01/07 02:08:57;;;;;;;1.20;1.10;;;17.30;55.00;;;;;;5069664;28;20173;-60
2021/01/07 02:11:22;;;;;;;1.65;1.45;;;17.30;55.00;;;;;;5086193;28;20639;-59
2021/01/07 02:13:48;;;;;;;1.77;1.02;;;17.40;55.00;;;;;;5104184;28;20572;-60
2021/01/07 02:16:23;;;;;;;1.50;1.30;;;17.30;55.00;;;;;;5104331;28;20180;-61
2021/01/07 02:18:52;;;;;;;1.70;1.20;;;17.30;55.00;;;;;;5104578;28;20172;-61
2021/01/07 02:21:17;;;;;;;1.38;1.27;;;17.30;55.00;;;;;;5108607;28;20178;-61
2021/01/07 02:23:55;;;;;;;1.10;1.10;;;17.30;55.00;;;;;;5095780;28;20178;-60
2021/01/07 02:26:22;;;;;;;2.25;1.20;;;17.30;55.10;;;;;;5088050;28;20181;-60
2021/01/07 02:28:48;;;;;;;1.30;1.10;;;17.30;55.10;;;;;;5088276;28;20186;-59
2021/01/07 02:31:17;;;;;;;1.30;1.20;;;17.30;55.10;;;;;;5087692;28;20549;-60
2021/01/07 02:33:42;;;;;;;1.27;1.00;;;17.20;55.10;;;;;;5088059;28;20209;-59
2021/01/07 02:36:08;;;;;;;1.40;1.10;;;17.30;55.10;;;;;;5088125;28;20217;-59
2021/01/07 02:38:34;;;;;;;2.00;1.50;;;17.30;55.10;;;;;;5088033;28;20540;-60
2021/01/07 02:41:00;;;;;;;1.25;1.15;;;17.20;55.00;;;;;;5087853;28;20227;-60
2021/01/07 02:43:25;;;;;;;1.50;1.40;;;17.20;55.10;;;;;;5087592;28;20632;-60
2021/01/07 02:45:51;;;;;;;1.45;1.35;;;17.20;55.10;;;;;;5087952;28;20694;-60
2021/01/07 02:48:16;;;;;;;2.05;1.17;;;17.20;55.10;;;;;;5087718;28;20608;-59
2021/01/07 02:50:42;;;;;;;2.00;1.30;;;17.20;55.10;;;;;;5087861;28;20223;-61
2021/01/07 02:53:08;;;;;;;1.73;1.38;;;17.20;55.10;;;;;;5087292;28;20264;-61
2021/01/07 02:55:33;;;;;;;1.48;1.30;;;17.20;55.20;;;;;;5087706;28;20654;-60
2021/01/07 02:57:59;;;;;;;1.42;1.33;;;17.20;55.20;;;;;;5087929;28;20177;-60
2021/01/07 03:00:24;;;;;;;1.48;1.38;;;17.20;55.20;;;;;;5087757;28;20694;-60
2021/01/07 03:02:50;;;;;;;1.35;1.25;;;17.20;55.20;;;;;;5087310;28;20784;-61
2021/01/07 03:05:16;;;;;;;1.67;1.15;;;17.10;55.20;;;;;;5087174;28;21083;-61
2021/01/07 03:07:41;;;;;;;1.25;1.15;;;17.10;55.20;;;;;;5087233;28;21020;-62
2021/01/07 03:10:10;;;;;;;1.63;1.30;;;17.10;55.20;;;;;;5087411;28;20661;-61
2021/01/07 03:12:36;;;;;;;2.20;1.30;;;17.10;55.20;;;;;;5069005;28;20196;-62
2021/01/07 03:15:02;;;;;;;1.40;1.30;;;17.10;55.30;;;;;;5086747;28;20206;-64
2021/01/07 03:17:27;;;;;;;1.95;1.40;;;17.10;55.30;;;;;;5087256;28;20182;-64
2021/01/07 03:19:53;;;;;;;2.95;1.25;;;17.10;55.40;;;;;;5087084;28;20265;-64
2021/01/07 03:22:18;;;;;;;1.20;1.10;;;17.10;55.30;;;;;;5086977;28;20201;-64
2021/01/07 03:24:44;;;;;;;2.67;1.48;;;17.10;55.20;;;;;;5086877;28;20574;-62
2021/01/07 03:27:09;;;;;;;1.90;1.00;;;17.00;55.20;;;;;;5086911;28;20178;-63
2021/01/07 03:29:35;;;;;;;1.23;1.13;;;17.00;55.30;;;;;;5086808;28;20280;-63
2021/01/07 03:32:03;;;;;;;1.38;1.27;;;17.00;55.40;;;;;;5086493;28;20223;-63
2021/01/07 03:34:28;;;;;;;1.55;1.02;;;17.00;55.30;;;;;;5086730;28;20201;-63
2021/01/07 03:36:54;;;;;;;1.55;1.20;;;16.90;55.30;;;;;;5086754;28;20599;-62
2021/01/07 03:39:19;;;;;;;1.92;1.13;;;16.90;55.30;;;;;;5086603;28;20285;-63
2021/01/07 03:41:45;;;;;;;1.25;1.10;;;16.90;55.20;;;;;;5086520;28;20173;-63
2021/01/07 03:44:12;;;;;;;1.40;1.30;;;16.80;55.20;;;;;;5086170;28;20212;-64
2021/01/07 03:46:37;;;;;;;1.50;1.10;;;16.80;55.20;;;;;;5086555;28;20185;-64
2021/01/07 03:49:03;;;;;;;1.20;0.98;;;16.80;55.20;;;;;;5068615;28;20178;-64
2021/01/07 03:51:29;;;;;;;1.00;1.00;;;16.80;55.20;;;;;;5086220;28;20611;-64
2021/01/07 03:53:55;;;;;;;1.45;1.10;;;16.80;55.20;;;;;;5086096;28;20202;-63
2021/01/07 03:56:20;;;;;;;2.28;1.40;;;16.80;55.20;;;;;;5086285;28;20170;-64
2021/01/07 03:58:46;;;;;;;1.50;1.40;;;16.80;55.20;;;;;;5086039;28;20212;-64
2021/01/07 04:01:11;;;;;;;1.20;1.10;;;16.70;55.10;;;;;;5086173;28;20173;-63
2021/01/07 04:03:37;;;;;;;1.98;1.50;;;16.70;55.10;;;;;;5086262;28;20170;-63
2021/01/07 04:06:02;;;;;;;1.40;1.30;;;16.70;55.10;;;;;;5086098;28;20182;-62
2021/01/07 04:08:28;;;;;;;1.17;1.08;;;16.70;55.10;;;;;;5086283;28;20181;-62
2021/01/07 04:10:54;;;;;;;1.40;1.30;;;16.60;55.00;;;;;;5067867;28;20185;-63
2021/01/07 04:13:19;;;;;;;1.33;1.23;;;16.70;55.10;;;;;;5085936;28;20198;-62
2021/01/07 04:15:45;;;;;;;1.02;1.02;;;16.60;55.00;;;;;;5086227;28;20620;-63
2021/01/07 04:18:10;;;;;;;1.30;1.20;;;16.60;55.00;;;;;;5085955;28;20507;-63
2021/01/07 04:20:36;;;;;;;1.25;1.15;;;16.60;55.00;;;;;;5086032;28;20174;-64
2021/01/07 04:23:02;;;;;;;1.70;1.50;;;16.50;54.90;;;;;;5086121;28;20174;-64
2021/01/07 04:25:27;;;;;;;1.15;1.10;;;16.50;55.00;;;;;;5085803;28;20181;-61
2021/01/07 04:27:53;;;;;;;1.30;1.20;;;16.60;55.10;;;;;;5064365;28;20624;-62
2021/01/07 04:30:19;;;;;;;1.48;1.38;;;16.50;55.00;;;;;;5065437;28;20170;-62
2021/01/07 04:32:44;;;;;;;1.30;1.20;;;16.50;55.00;;;;;;5065511;28;20170;-62
2021/01/07 04:35:10;;;;;;;0.90;0.90;;;16.50;55.00;;;;;;5065574;28;20582;-62
2021/01/07 04:37:36;;;;;;;1.88;1.17;;;16.50;55.00;;;;;;5065678;28;20178;-63
2021/01/07 04:40:01;;;;;;;1.58;1.33;;;16.40;54.90;;;;;;5065420;28;20554;-62
2021/01/07 04:42:27;;;;;;;1.40;1.30;;;16.50;55.00;;;;;;5064837;28;20178;-64
2021/01/07 04:44:53;;;;;;;1.23;1.13;;;16.40;54.80;;;;;;5065284;28;20174;-64
2021/01/07 04:47:18;;;;;;;1.33;1.23;;;16.50;54.90;;;;;;5047809;28;20182;-64
2021/01/07 04:49:44;;;;;;;1.60;1.30;;;16.40;54.90;;;;;;5064117;28;20517;-64
2021/01/07 04:52:09;;;;;;;1.13;1.13;;;16.40;54.90;;;;;;5065302;28;20959;-63
2021/01/07 04:54:35;;;;;;;1.77;1.20;;;16.40;54.90;;;;;;5065001;28;20364;-63
2021/01/07 04:57:01;;;;;;;1.20;1.10;;;16.40;54.90;;;;;;5063775;28;20187;-63
2021/01/07 04:59:27;;;;;;;1.10;1.05;;;16.40;54.90;;;;;;5063847;28;20175;-63
2021/01/07 05:01:52;;;;;;;1.30;1.20;;;16.30;54.80;;;;;;5064771;28;20178;-63
2021/01/07 05:04:18;;;;;;;1.30;1.20;;;16.40;54.90;;;;;;5064819;28;20224;-63
2021/01/07 05:06:49;;;;;;;1.52;1.42;;;16.40;54.90;;;;;;5065082;28;20277;-63
2021/01/07 05:09:15;;;;;;;1.35;1.25;;;16.30;54.80;;;;;;5064972;28;20281;-62
2021/01/07 05:11:40;;;;;;;1.38;1.20;;;16.30;54.80;;;;;;5064630;28;20289;-63
2021/01/07 05:14:07;;;;;;;1.45;1.30;;;16.30;54.80;;;;;;5064444;28;20566;-62
2021/01/07 05:16:33;;;;;;;2.95;1.15;;;16.30;54.90;;;;;;5063337;28;20190;-63
2021/01/07 05:19:01;;;;;;;1.27;1.20;;;16.30;54.90;;;;;;5064696;28;20171;-61
2021/01/07 05:21:26;;;;;;;1.52;1.42;;;16.30;55.00;;;;;;5064512;28;20187;-61
2021/01/07 05:23:52;;;;;;;1.83;1.33;;;16.30;55.10;;;;;;5064073;28;21016;-61
2021/01/07 05:26:18;;;;;;;1.70;1.60;;;16.30;54.70;;;;;;5064070;28;20570;-61
2021/01/07 05:28:49;;;;;;;1.63;1.10;;;16.40;54.60;;;;;;5062882;28;20228;-62
2021/01/07 05:31:25;;;;;;;1.45;1.35;;;16.30;54.50;;;;;;5063463;28;20189;-62
2021/01/07 05:33:51;;;;;;;3.35;1.83;;;16.40;55.40;;;;;;5064222;28;20206;-60
2021/01/07 05:36:23;;;;;;;2.58;1.20;;;16.40;54.90;;;;;;5064525;28;20236;-61
2021/01/07 05:38:50;;;;;;;1.95;1.40;;;16.40;54.90;;;;;;5063898;28;20654;-61
2021/01/07 05:41:16;;;;;;;1.88;1.30;;;16.40;54.90;;;;;;5063907;28;20178;-59
2021/01/07 05:43:45;;;;;;;4.03;1.48;;;16.40;54.90;;;;;;5046401;28;20182;-59
2021/01/07 05:46:11;;;;;;;3.13;1.30;;;16.40;54.90;;;;;;5064418;28;20575;-61
2021/01/07 05:48:37;;;;;;;2.88;1.33;;;16.40;54.80;;;;;;5064238;28;20174;-61
2021/01/07 05:51:04;;;;;;;1.40;1.30;;;16.40;54.90;;;;;;5062995;28;20201;-61
2021/01/07 05:53:30;;;;;;;1.83;1.17;;;16.40;55.60;;;;;;5062887;28;20180;-60
2021/01/07 05:55:56;;;;;;;2.50;1.15;;;16.40;55.10;;;;;;5062981;28;20186;-60
2021/01/07 05:58:22;;;;;;;2.00;1.70;;;16.40;55.00;;;;;;5064219;28;20539;-61
2021/01/07 06:00:48;;;;;;;1.63;1.52;;;16.40;55.00;;;;;;5062947;28;20178;-61
2021/01/07 06:03:13;;;;;;;1.73;1.23;;;16.50;55.20;;;;;;5062421;28;20240;-61
2021/01/07 06:05:39;;;;;;;1.17;1.08;;;16.50;55.40;;;;;;5062943;28;20190;-60
2021/01/07 06:08:04;;;;;;;3.83;1.30;;;16.60;55.70;;;;;;5063866;28;20178;-61
2021/01/07 06:10:30;;;;;;;1.30;1.20;;;16.70;55.50;;;;;;5064021;28;20167;-61
2021/01/07 06:12:56;;;;;;;1.98;1.10;;;16.80;55.50;;;;;;5062814;28;20202;-61
2021/01/07 06:15:22;;;;;;;2.00;0.80;;;16.90;55.50;;;;;;5063968;28;20206;-61
2021/01/07 06:17:48;;;;;;;4.55;1.02;;;17.10;55.20;;;;;;5063868;28;20185;-61
2021/01/07 06:20:21;;;;;;;4.07;1.30;;;17.30;54.60;;;;;;5062801;28;20185;-61
2021/01/07 06:22:48;;;;;;;1.25;1.00;;;17.50;54.20;;;;;;5063618;28;20205;-61
2021/01/07 06:25:14;;;;;;;1.13;1.00;;;17.70;54.00;;;;;;5061856;28;20174;-61
2021/01/07 06:27:43;;;;;;;1.10;1.00;;;17.80;53.90;;;;;;5067114;28;20209;-59
2021/01/07 06:30:09;;;;;;;0.70;0.70;;;17.90;53.70;;;;;;5083816;28;20266;-60
2021/01/07 06:32:34;;;;;;;3.20;1.00;;;18.00;53.70;;;;;;5083932;28;20248;-63
2021/01/07 06:35:00;;;;;;;2.40;0.93;;;18.10;53.70;;;;;;5083599;28;20221;-63
2021/01/07 06:37:36;;;;;;;1.73;0.80;;;18.10;53.70;;;;;;5083656;28;20294;-62
2021/01/07 06:40:04;;;;;;;1.77;1.08;;;18.10;53.60;;;;;;5084024;28;20229;-60
2021/01/07 06:42:29;;;;;;;1.48;0.70;;;18.20;53.60;;;;;;5083634;28;20638;-60
2021/01/07 06:44:58;;;;;;;0.98;0.88;;;18.20;53.50;;;;;;5084049;28;20289;-60
2021/01/07 06:47:24;;;;;;;1.15;1.10;;;18.20;53.50;;;;;;5065843;28;20185;-61
2021/01/07 06:49:50;;;;;;;0.70;0.70;;;18.20;53.50;;;;;;5083508;28;20201;-60
2021/01/07 06:52:16;;;;;;;2.85;1.08;;;18.20;53.60;;;;;;5065902;28;20611;-61
2021/01/07 06:54:44;;;;;;;1.48;1.00;;;18.20;53.70;;;;;;5083897;28;20304;-60
2021/01/07 06:57:11;;;;;;;1.52;0.95;;;18.20;53.70;;;;;;5083774;28;20170;-63
2021/01/07 06:59:36;;;;;;;0.80;0.80;;;18.20;53.70;;;;;;5083583;28;20220;-62
2021/01/07 07:02:04;;;;;;;1.85;1.00;;;18.30;53.60;;;;;;5083528;28;20627;-60
2021/01/07 07:04:30;;;;;;;1.80;0.90;;;18.20;53.50;;;;;;5066066;28;20276;-61
2021/01/07 07:07:03;;;;;;;1.50;0.90;;;18.10;53.50;;;;;;5087201;28;20723;-61
2021/01/07 07:09:37;;;;;;;1.48;1.23;;;18.00;53.40;;;;;;5087236;28;20173;-61
2021/01/07 07:12:03;;;;;;;1.55;1.00;;;17.90;53.60;;;;;;5087339;28;20543;-61
2021/01/07 07:14:30;;;;;;;1.77;1.00;;;17.80;53.50;;;;;;5068919;28;20213;-59
2021/01/07 07:16:55;;;;;;;1.15;1.05;;;17.70;53.50;;;;;;5069167;28;20640;-60
2021/01/07 07:19:27;;;;;;;1.40;1.15;;;17.70;53.50;;;;;;5087189;28;20207;-60
2021/01/07 07:22:02;;;;;;;1.45;1.30;;;17.70;53.50;;;;;;5086830;28;20214;-62
2021/01/07 07:24:42;;;;;;;1.05;0.93;;;17.70;53.40;;;;;;5087236;28;20161;-61
2021/01/07 07:27:09;;;;;;;1.48;1.02;;;17.60;53.30;;;;;;5086984;28;20619;-57
2021/01/07 07:29:36;;;;;;;1.15;1.10;;;17.60;53.40;;;;;;5086724;28;20194;-58
2021/01/07 07:32:02;;;;;;;1.20;1.05;;;17.50;53.30;;;;;;5069033;28;20178;-58
2021/01/07 07:34:30;;;;;;;0.88;0.88;;;17.50;53.40;;;;;;5068704;28;20242;-59
2021/01/07 07:36:55;;;;;;;1.17;1.10;;;17.40;53.50;;;;;;5086421;28;20276;-61
2021/01/07 07:39:24;;;;;;;1.48;1.15;;;17.30;53.60;;;;;;5086739;28;20279;-61
2021/01/07 07:41:50;;;;;;;1.00;1.00;;;17.40;53.70;;;;;;5068544;28;20260;-63
2021/01/07 07:44:15;;;;;;;1.27;1.17;;;17.40;53.70;;;;;;5051886;28;20184;-62
2021/01/07 07:46:41;;;;;;;1.10;1.00;;;17.30;53.50;;;;;;5086512;28;20177;-60
2021/01/07 07:49:10;;;;;;;2.05;1.33;;;17.30;53.50;;;;;;5068156;28;20704;-61
2021/01/07 07:51:35;;;;;;;1.25;1.15;;;17.30;53.50;;;;;;5086301;28;20197;-57
2021/01/07 07:54:06;;;;;;;1.63;1.20;;;17.30;53.50;;;;;;5086378;28;20292;-60
2021/01/07 07:56:31;;;;;;;1.20;1.20;;;17.40;53.50;;;;;;5086237;28;20386;-60
2021/01/07 07:58:58;;;;;;;1.00;1.00;;;17.30;53.30;;;;;;5086429;28;20931;-60
2021/01/07 08:01:43;;;;;;;1.17;1.08;;;17.30;53.40;;;;;;5086412;28;20501;-59
2021/01/07 08:04:19;;;;;;;1.38;0.90;;;17.30;53.40;;;;;;5086365;28;20220;-61
2021/01/07 08:06:45;;;;;;;1.15;1.05;;;17.30;53.40;;;;;;5086269;28;20408;-60
2021/01/07 08:09:12;;;;;;;1.67;1.23;;;17.20;53.50;;;;;;5086206;28;20231;-60
2021/01/07 08:11:45;;;;;;;1.55;1.30;;;17.20;53.60;;;;;;5086087;28;20174;-59
2021/01/07 08:14:12;;;;;;;1.10;1.00;;;17.10;53.60;;;;;;5085965;28;20226;-59
2021/01/07 08:16:38;;;;;;;1.02;0.93;;;17.10;53.50;;;;;;5066547;28;20178;-60
2021/01/07 08:19:17;;;;;;;1.55;1.00;;;17.20;53.60;;;;;;5086179;28;20209;-60
2021/01/07 08:21:52;;;;;;;2.13;1.10;;;17.20;53.50;;;;;;5086192;28;20170;-60
2021/01/07 08:24:19;;;;;;;0.80;0.80;;;17.20;53.50;;;;;;5085714;28;20212;-60
2021/01/07 08:26:53;;;;;;;2.58;1.00;;;17.20;53.40;;;;;;5085625;28;20198;-60
2021/01/07 08:29:19;;;;;;;1.33;1.23;;;17.30;53.40;;;;;;5052186;28;20238;-59
2021/01/07 08:31:46;;;;;;;0.88;0.88;;;17.40;53.30;;;;;;5067364;28;20181;-60
2021/01/07 08:34:12;;;;;;;0.75;0.75;;;17.40;53.20;;;;;;5067925;28;20519;-59
2021/01/07 08:36:38;;;;;;;0.73;0.70;;;17.40;53.00;;;;;;5085574;28;20658;-61
2021/01/07 08:39:04;;;;;;;0.98;0.88;;;17.50;53.00;;;;;;5067393;28;20182;-60
2021/01/07 08:41:32;;;;;;;0.85;0.70;;;17.60;52.80;;;;;;5085190;28;20284;-60
2021/01/07 08:44:01;;;;;;;0.93;0.93;;;17.70;52.70;;;;;;5067321;28;20169;-59
2021/01/07 08:46:29;;;;;;;1.15;0.80;;;17.70;52.60;;;;;;5085582;28;20265;-61
2021/01/07 08:49:13;;;;;;;0.80;0.80;;;17.80;52.50;;;;;;5067143;28;20227;-61
2021/01/07 08:51:48;;;;;;;0.95;0.63;;;17.80;52.40;;;;;;5085084;28;20242;-61
2021/01/07 08:54:15;;;;;;;0.77;0.77;;;17.90;52.30;;;;;;5085127;28;20273;-58
2021/01/07 08:56:42;;;;;;;1.02;1.02;;;17.90;52.20;;;;;;5085559;28;20170;-61
2021/01/07 08:59:29;;;;;;;0.80;0.80;;;17.90;52.20;;;;;;5085293;28;20674;-60
2021/01/07 09:02:04;;;;;;;0.80;0.80;;;18.00;52.10;;;;;;5085200;28;20370;-61
2021/01/07 09:04:36;;;;;;;0.80;0.80;;;18.00;52.00;;;;;;5085504;28;20251;-62
2021/01/07 09:07:14;;;;;;;0.95;0.82;;;18.00;51.90;;;;;;5084970;28;20166;-61
2021/01/07 09:09:43;;;;;;;0.70;0.70;;;18.10;51.90;;;;;;5085031;28;20174;-62
2021/01/07 09:12:17;;;;;;;0.70;0.70;;;18.10;51.90;;;;;;5085033;28;20277;-59
2021/01/07 09:14:52;;;;;;;0.98;0.85;;;18.10;51.90;;;;;;5084794;28;20215;-59
2021/01/07 09:17:23;;;;;;;0.70;0.70;;;18.10;51.80;;;;;;5085430;28;20548;-62
2021/01/07 09:19:49;;;;;;;0.75;0.75;;;18.10;51.80;;;;;;5084561;28;20182;-61
2021/01/07 09:22:21;;;;;;;0.80;0.80;;;18.20;51.70;;;;;;5084650;28;20223;-62
2021/01/07 09:24:47;;;;;;;0.88;0.88;;;18.20;51.80;;;;;;5084654;28;20177;-61
2021/01/07 09:27:20;;;;;;;0.55;0.55;;;18.20;51.80;;;;;;5084258;28;20169;-60
2021/01/07 09:29:46;;;;;;;0.80;0.80;;;18.10;51.90;;;;;;5084422;28;20208;-58
2021/01/07 09:32:12;;;;;;;0.82;0.82;;;18.00;52.00;;;;;;5084697;28;20201;-60
2021/01/07 09:34:38;;;;;;;0.82;0.82;;;17.90;52.20;;;;;;5084290;28;20215;-60
2021/01/07 09:37:06;;;;;;;0.70;0.70;;;17.80;52.20;;;;;;5084432;28;21050;-62
2021/01/07 09:39:33;;;;;;;0.70;0.70;;;17.80;52.50;;;;;;5084337;28;20185;-60
2021/01/07 09:41:58;;;;;;;0.70;0.70;;;17.70;52.50;;;;;;5084475;28;20235;-62
2021/01/07 09:44:24;;;;;;;0.60;0.60;;;17.70;52.50;;;;;;5066441;28;20212;-61
2021/01/07 09:46:56;;;;;;;0.60;0.60;;;17.70;52.50;;;;;;5084233;28;20167;-62
2021/01/07 09:49:22;;;;;;;0.88;0.88;;;17.70;52.50;;;;;;5066439;28;20253;-57
2021/01/07 09:51:48;;;;;;;0.70;0.70;;;17.70;52.60;;;;;;5084048;28;20646;-58
2021/01/07 09:54:14;;;;;;;0.60;0.60;;;17.60;52.70;;;;;;5083903;28;20248;-61
2021/01/07 09:56:39;;;;;;;0.88;0.77;;;17.50;52.80;;;;;;5084299;28;20209;-60
2021/01/07 09:59:05;;;;;;;0.70;0.70;;;17.40;52.90;;;;;;5084157;28;20608;-60
2021/01/07 10:01:30;;;;;;;0.70;0.70;;;17.40;53.00;;;;;;5083987;28;20198;-61
2021/01/07 10:03:56;;;;;;;1.00;1.00;;;17.30;53.20;;;;;;5084242;28;21077;-59
2021/01/07 10:06:21;;;;;;;0.73;0.68;;;17.40;53.20;;;;;;5084071;28;20173;-61
2021/01/07 10:08:47;;;;;;;0.60;0.60;;;17.30;53.10;;;;;;5083981;28;20185;-61
2021/01/07 10:11:13;;;;;;;0.60;0.60;;;17.30;53.20;;;;;;5084373;28;20169;-61
2021/01/07 10:13:39;;;;;;;0.85;0.82;;;17.40;53.20;;;;;;5083928;28;20277;-62
2021/01/07 10:16:04;;;;;;;0.73;0.73;;;17.30;53.10;;;;;;5084142;28;20184;-60
2021/01/07 10:18:30;;;;;;;0.73;0.73;;;17.30;53.10;;;;;;5065819;28;20174;-60
2021/01/07 10:20:59;;;;;;;0.70;0.70;;;17.30;53.10;;;;;;5084095;28;20174;-61
2021/01/07 10:23:24;;;;;;;0.70;0.70;;;17.20;53.20;;;;;;5065682;28;20186;-57
2021/01/07 10:25:50;;;;;;;0.75;0.75;;;17.20;53.80;;;;;;5065406;28;20299;-61
2021/01/07 10:28:16;;;;;;;0.70;0.70;;;17.20;53.30;;;;;;5066166;28;20194;-58
2021/01/07 10:30:41;;;;;;;0.65;0.65;;;17.10;53.30;;;;;;5049288;28;20214;-62
2021/01/07 10:33:07;;;;;;;0.70;0.70;;;17.10;53.40;;;;;;5049113;28;20227;-60
2021/01/07 10:35:36;;;;;;;0.65;0.63;;;17.10;54.10;;;;;;5049216;28;20250;-61
2021/01/07 10:38:02;;;;;;;0.80;0.80;;;17.10;53.40;;;;;;5049775;28;20261;-62
2021/01/07 10:40:29;;;;;;;0.55;0.55;;;17.10;53.40;;;;;;5067153;28;20249;-58
2021/01/07 10:42:54;;;;;;;0.82;0.65;;;17.20;53.40;;;;;;5053125;28;20265;-61
2021/01/07 10:45:20;;;;;;;0.60;0.60;;;17.20;53.40;;;;;;5087536;28;20574;-63
2021/01/07 10:47:45;;;;;;;0.50;0.50;;;17.20;53.40;;;;;;5053079;28;20193;-62
2021/01/07 10:50:14;;;;;;;0.50;0.50;;;17.20;53.40;;;;;;5053022;28;20178;-61
2021/01/07 10:52:53;;;;;;;0.63;0.63;;;17.10;53.40;;;;;;5087695;28;20172;-61
2021/01/07 10:55:26;;;;;;;0.50;0.50;;;17.10;53.40;;;;;;5053988;28;20247;-61
2021/01/07 10:57:55;;;;;;;0.50;0.50;;;17.10;53.60;;;;;;5087564;28;20627;-61
2021/01/07 11:00:20;;;;;;;0.95;0.80;;;17.00;53.50;;;;;;5087533;28;20631;-59
2021/01/07 11:03:23;;;;;;;0.52;0.52;;;17.00;53.60;;;;;;5087164;28;20165;-57
2021/01/07 11:05:52;;;;;;;0.60;0.60;;;17.10;53.60;;;;;;5087119;28;20545;-63
2021/01/07 11:08:37;;;;;;;1.38;0.73;;;17.10;53.80;;;;;;5052673;28;20939;-62
2021/01/07 11:11:08;;;;;;;0.60;0.60;;;17.10;53.70;;;;;;5087244;28;20165;-63
2021/01/07 11:13:37;;;;;;;0.55;0.55;;;17.10;53.80;;;;;;5068878;28;20170;-62
2021/01/07 11:16:03;;;;;;;2.22;0.70;;;17.10;53.80;;;;;;5069528;28;20637;-62
2021/01/07 11:18:30;;;;;;;1.30;0.80;;;17.10;53.90;;;;;;5087152;28;20174;-62
2021/01/07 11:21:00;;;;;;;0.50;0.50;;;17.10;53.90;;;;;;5087215;28;20172;-63
2021/01/07 11:23:26;;;;;;;0.80;0.80;;;17.10;54.00;;;;;;5086810;28;20246;-63
2021/01/07 11:25:52;;;;;;;0.82;0.80;;;17.10;54.10;;;;;;5087044;28;20984;-63
2021/01/07 11:28:18;;;;;;;1.55;0.70;;;17.10;54.10;;;;;;5086878;28;20189;-61
2021/01/07 11:30:44;;;;;;;1.80;0.90;;;17.20;54.20;;;;;;5086890;28;20234;-64
2021/01/07 11:33:10;;;;;;;1.00;0.88;;;17.20;54.20;;;;;;5068644;28;20178;-66
2021/01/07 11:35:35;;;;;;;3.00;1.00;;;17.20;54.30;;;;;;5086819;28;20202;-67
2021/01/07 11:38:03;;;;;;;1.17;0.88;;;17.30;54.50;;;;;;5068566;28;20238;-62
2021/01/07 11:40:41;;;;;;;1.67;0.90;;;17.30;54.30;;;;;;5086747;28;20162;-64
2021/01/07 11:43:26;;;;;;;1.05;0.57;;;17.30;54.30;;;;;;5069003;28;20181;-64
2021/01/07 11:46:01;;;;;;;1.65;1.02;;;17.30;54.30;;;;;;5086621;28;20634;-63
2021/01/07 11:48:30;;;;;;;0.93;0.80;;;17.30;54.30;;;;;;5086278;28;20716;-63
2021/01/07 11:51:04;;;;;;;2.92;0.82;;;17.20;55.00;;;;;;5068868;28;20261;-64
2021/01/07 11:53:30;;;;;;;1.38;0.98;;;17.20;54.40;;;;;;5067981;28;20196;-63
2021/01/07 11:55:57;;;;;;;0.77;0.77;;;17.20;54.40;;;;;;5086394;28;20619;-64
2021/01/07 11:58:24;;;;;;;2.20;0.85;;;17.30;54.50;;;;;;5068911;28;20219;-64
2021/01/07 12:00:52;;;;;;;2.50;0.80;;;17.40;54.40;;;;;;5052248;28;20178;-63
2021/01/07 12:03:18;;;;;;;1.85;0.80;;;17.30;54.30;;;;;;5086510;28;20176;-66
2021/01/07 12:05:44;;;;;;;1.52;1.05;;;17.40;54.40;;;;;;5067983;28;20257;-65
2021/01/07 12:08:32;;;;;;;1.42;0.75;;;17.30;54.30;;;;;;5068284;28;20166;-63
2021/01/07 12:10:58;;;;;;;0.73;0.73;;;17.30;54.40;;;;;;5070794;28;20227;-64
2021/01/07 12:13:32;;;;;;;0.80;0.80;;;17.30;54.50;;;;;;5068198;28;20182;-64
2021/01/07 12:15:58;;;;;;;1.88;0.90;;;17.20;54.50;;;;;;5069313;28;20182;-64
2021/01/07 12:18:26;;;;;;;2.00;0.80;;;17.20;54.40;;;;;;5068002;28;20514;-64
2021/01/07 12:20:51;;;;;;;1.88;0.90;;;17.20;54.50;;;;;;5052065;28;20162;-63
2021/01/07 12:23:17;;;;;;;1.45;0.77;;;17.20;54.60;;;;;;5067887;28;20189;-64
2021/01/07 12:25:42;;;;;;;0.85;0.70;;;17.30;54.60;;;;;;5034682;28;20178;-60
2021/01/07 12:28:15;;;;;;;0.85;0.85;;;17.30;54.60;;;;;;5085885;28;20221;-62
2021/01/07 12:30:45;;;;;;;3.70;0.80;;;17.30;54.40;;;;;;5085797;28;20181;-63
2021/01/07 12:33:30;;;;;;;1.27;0.73;;;17.30;54.60;;;;;;5085853;28;20170;-64
2021/01/07 12:36:17;;;;;;;0.68;0.68;;;17.30;54.50;;;;;;5085765;28;20178;-62
2021/01/07 12:38:57;;;;;;;1.48;0.98;;;17.30;54.60;;;;;;5085554;28;20257;-63
2021/01/07 12:41:26;;;;;;;0.50;0.50;;;17.20;54.70;;;;;;5085474;28;20196;-63
2021/01/07 12:43:52;;;;;;;0.68;0.60;;;17.30;54.80;;;;;;5067221;28;20507;-62
2021/01/07 12:46:21;;;;;;;0.80;0.80;;;17.20;54.80;;;;;;5051018;28;20179;-63
2021/01/07 12:48:47;;;;;;;1.00;0.98;;;17.20;54.80;;;;;;5084892;28;20542;-63